sensor_id;sensor_type;location;lat;lon;timestamp;temperature;humidity
23063;DHT22;11699;43.704;10.430;2023-04-30T00:00:09;16.30;99.90
23063;DHT22;11699;43.704;10.430;2023-04-30T00:02:37;16.30;99.90
23063;DHT22;11699;43.704;10.430;2023-04-30T00:05:05;16.30;99.90
23063;DHT22;11699;43.704;10.430;2023-04-30T00:07:33;16.20;99.90
23063;DHT22;11699;43.704;10.430;2023-04-30T00:10:01;16.30;99.90
23063;DHT22;11699;43.704;10.430;2023-04-30T00:12:30;16.20;99.90
23063;DHT22;11699;43.704;10.430;2023-04-30T00:14:57;16.20;99.90
23063;DHT22;11699;43.704;10.430;2023-04-30T00:17:25;16.20;99.90
23063;DHT22;11699;43.704;10.430;2023-04-30T00:19:52;16.20;99.90
23063;DHT22;11699;43.704;10.430;2023-04-30T00:22:20;16.10;99.90
23063;DHT22;11699;43.704;10.430;2023-04-30T00:24:49;16.10;99.90
23063;DHT22;11699;43.704;10.430;2023-04-30T00:27:16;16.00;99.90
23063;DHT22;11699;43.704;10.430;2023-04-30T00:29:44;16.10;99.90
23063;DHT22;11699;43.704;10.430;2023-04-30T00:32:11;16.10;99.90
23063;DHT22;11699;43.704;10.430;2023-04-30T00:34:38;16.10;99.90
23063;DHT22;11699;43.704;10.430;2023-04-30T00:37:06;16.00;99.90
23063;DHT22;11699;43.704;10.430;2023-04-30T00:39:33;16.00;99.90
23063;DHT22;11699;43.704;10.430;2023-04-30T00:42:01;15.90;99.90
23063;DHT22;11699;43.704;10.430;2023-04-30T00:44:29;15.90;99.90
23063;DHT22;11699;43.704;10.430;2023-04-30T00:46:56;16.00;99.90
23063;DHT22;11699;43.704;10.430;2023-04-30T00:49:23;16.00;99.90
23063;DHT22;11699;43.704;10.430;2023-04-30T00:51:51;16.00;99.90
23063;DHT22;11699;43.704;10.430;2023-04-30T00:54:20;16.00;99.90
23063;DHT22;11699;43.704;10.430;2023-04-30T00:56:47;15.90;99.90
23063;DHT22;11699;43.704;10.430;2023-04-30T00:59:16;15.90;99.90
23063;DHT22;11699;43.704;10.430;2023-04-30T01:01:43;15.90;99.90
23063;DHT22;11699;43.704;10.430;2023-04-30T01:04:11;15.90;99.90
23063;DHT22;11699;43.704;10.430;2023-04-30T01:06:38;15.90;99.90
23063;DHT22;11699;43.704;10.430;2023-04-30T01:09:08;15.90;99.90
23063;DHT22;11699;43.704;10.430;2023-04-30T01:11:43;15.90;99.90
23063;DHT22;11699;43.704;10.430;2023-04-30T01:14:24;15.90;99.90
23063;DHT22;11699;43.704;10.430;2023-04-30T01:16:59;15.80;99.90
23063;DHT22;11699;43.704;10.430;2023-04-30T01:19:35;15.80;99.90
23063;DHT22;11699;43.704;10.430;2023-04-30T01:22:04;15.70;99.90
23063;DHT22;11699;43.704;10.430;2023-04-30T01:24:52;15.60;99.90
23063;DHT22;11699;43.704;10.430;2023-04-30T01:30:08;15.60;99.90
23063;DHT22;11699;43.704;10.430;2023-04-30T01:32:36;15.60;99.90
23063;DHT22;11699;43.704;10.430;2023-04-30T01:35:04;15.40;99.90
23063;DHT22;11699;43.704;10.430;2023-04-30T01:37:37;15.30;99.90
23063;DHT22;11699;43.704;10.430;2023-04-30T01:40:17;15.20;99.90
23063;DHT22;11699;43.704;10.430;2023-04-30T01:42:52;15.20;99.90
23063;DHT22;11699;43.704;10.430;2023-04-30T01:45:35;15.10;99.90
23063;DHT22;11699;43.704;10.430;2023-04-30T01:48:16;15.20;99.90
23063;DHT22;11699;43.704;10.430;2023-04-30T01:50:48;15.20;99.90
23063;DHT22;11699;43.704;10.430;2023-04-30T01:53:20;15.20;99.90
23063;DHT22;11699;43.704;10.430;2023-04-30T01:55:50;15.20;99.90
23063;DHT22;11699;43.704;10.430;2023-04-30T01:58:22;15.30;99.90
23063;DHT22;11699;43.704;10.430;2023-04-30T02:00:52;15.20;99.90
23063;DHT22;11699;43.704;10.430;2023-04-30T02:03:19;15.30;99.90
23063;DHT22;11699;43.704;10.430;2023-04-30T02:05:47;15.10;99.90
23063;DHT22;11699;43.704;10.430;2023-04-30T02:08:14;15.00;99.90
23063;DHT22;11699;43.704;10.430;2023-04-30T02:10:42;15.10;99.90
23063;DHT22;11699;43.704;10.430;2023-04-30T02:13:09;15.20;99.90
23063;DHT22;11699;43.704;10.430;2023-04-30T02:15:36;15.20;99.90
23063;DHT22;11699;43.704;10.430;2023-04-30T02:18:05;15.20;99.90
23063;DHT22;11699;43.704;10.430;2023-04-30T02:20:32;15.20;99.90
23063;DHT22;11699;43.704;10.430;2023-04-30T02:23:00;15.20;99.90
23063;DHT22;11699;43.704;10.430;2023-04-30T02:25:27;15.10;99.90
23063;DHT22;11699;43.704;10.430;2023-04-30T02:27:55;15.10;99.90
23063;DHT22;11699;43.704;10.430;2023-04-30T02:30:22;15.10;99.90
23063;DHT22;11699;43.704;10.430;2023-04-30T02:32:49;15.10;99.90
23063;DHT22;11699;43.704;10.430;2023-04-30T02:35:18;15.00;99.90
23063;DHT22;11699;43.704;10.430;2023-04-30T02:37:45;15.00;99.90
23063;DHT22;11699;43.704;10.430;2023-04-30T02:40:13;15.10;99.90
23063;DHT22;11699;43.704;10.430;2023-04-30T02:42:40;15.00;99.90
23063;DHT22;11699;43.704;10.430;2023-04-30T02:45:08;14.90;99.90
23063;DHT22;11699;43.704;10.430;2023-04-30T02:47:36;14.90;99.90
23063;DHT22;11699;43.704;10.430;2023-04-30T02:50:04;14.90;99.90
23063;DHT22;11699;43.704;10.430;2023-04-30T02:52:33;14.90;99.90
23063;DHT22;11699;43.704;10.430;2023-04-30T02:55:00;14.80;99.90
23063;DHT22;11699;43.704;10.430;2023-04-30T02:57:27;14.70;99.90
23063;DHT22;11699;43.704;10.430;2023-04-30T02:59:54;14.80;99.90
23063;DHT22;11699;43.704;10.430;2023-04-30T03:02:22;14.80;99.90
23063;DHT22;11699;43.704;10.430;2023-04-30T03:04:49;14.80;99.90
23063;DHT22;11699;43.704;10.430;2023-04-30T03:07:17;14.80;99.90
23063;DHT22;11699;43.704;10.430;2023-04-30T03:09:46;14.80;99.90
23063;DHT22;11699;43.704;10.430;2023-04-30T03:12:13;14.70;99.90
23063;DHT22;11699;43.704;10.430;2023-04-30T03:14:41;14.70;99.90
23063;DHT22;11699;43.704;10.430;2023-04-30T03:17:08;14.70;99.90
23063;DHT22;11699;43.704;10.430;2023-04-30T03:19:36;14.70;99.90
23063;DHT22;11699;43.704;10.430;2023-04-30T03:22:03;14.80;99.90
23063;DHT22;11699;43.704;10.430;2023-04-30T03:24:31;14.80;99.90
23063;DHT22;11699;43.704;10.430;2023-04-30T03:26:59;14.80;99.90
23063;DHT22;11699;43.704;10.430;2023-04-30T03:29:27;14.70;99.90
23063;DHT22;11699;43.704;10.430;2023-04-30T03:31:54;14.50;99.90
23063;DHT22;11699;43.704;10.430;2023-04-30T03:34:21;14.60;99.90
23063;DHT22;11699;43.704;10.430;2023-04-30T03:36:49;14.50;99.90
23063;DHT22;11699;43.704;10.430;2023-04-30T03:39:16;14.50;99.90
23063;DHT22;11699;43.704;10.430;2023-04-30T03:41:43;14.50;99.90
23063;DHT22;11699;43.704;10.430;2023-04-30T03:44:12;14.40;99.90
23063;DHT22;11699;43.704;10.430;2023-04-30T03:46:41;14.40;99.90
23063;DHT22;11699;43.704;10.430;2023-04-30T03:49:08;14.40;99.90
23063;DHT22;11699;43.704;10.430;2023-04-30T03:51:36;14.40;99.90
23063;DHT22;11699;43.704;10.430;2023-04-30T03:54:06;14.40;99.90
23063;DHT22;11699;43.704;10.430;2023-04-30T03:56:35;14.30;99.90
23063;DHT22;11699;43.704;10.430;2023-04-30T03:59:02;14.30;99.90
23063;DHT22;11699;43.704;10.430;2023-04-30T04:01:31;14.30;99.90
23063;DHT22;11699;43.704;10.430;2023-04-30T04:03:58;14.40;99.90
23063;DHT22;11699;43.704;10.430;2023-04-30T04:06:26;14.40;99.90
23063;DHT22;11699;43.704;10.430;2023-04-30T04:08:53;14.40;99.90
23063;DHT22;11699;43.704;10.430;2023-04-30T04:11:20;14.30;99.90
23063;DHT22;11699;43.704;10.430;2023-04-30T04:13:47;14.40;99.90
23063;DHT22;11699;43.704;10.430;2023-04-30T04:16:15;14.40;99.90
23063;DHT22;11699;43.704;10.430;2023-04-30T04:18:43;14.50;99.90
23063;DHT22;11699;43.704;10.430;2023-04-30T04:21:11;14.50;99.90
23063;DHT22;11699;43.704;10.430;2023-04-30T04:23:38;14.50;99.90
23063;DHT22;11699;43.704;10.430;2023-04-30T04:26:06;14.50;99.90
23063;DHT22;11699;43.704;10.430;2023-04-30T04:28:33;14.60;99.90
23063;DHT22;11699;43.704;10.430;2023-04-30T04:31:01;14.70;99.90
23063;DHT22;11699;43.704;10.430;2023-04-30T04:33:29;14.60;99.90
23063;DHT22;11699;43.704;10.430;2023-04-30T04:35:57;14.60;99.90
23063;DHT22;11699;43.704;10.430;2023-04-30T04:38:25;14.60;99.90
23063;DHT22;11699;43.704;10.430;2023-04-30T04:40:52;14.70;99.90
23063;DHT22;11699;43.704;10.430;2023-04-30T04:43:20;14.80;99.90
23063;DHT22;11699;43.704;10.430;2023-04-30T04:45:47;14.80;99.90
23063;DHT22;11699;43.704;10.430;2023-04-30T04:48:15;14.90;99.90
23063;DHT22;11699;43.704;10.430;2023-04-30T04:50:42;15.00;99.90
23063;DHT22;11699;43.704;10.430;2023-04-30T04:53:11;15.00;99.90
23063;DHT22;11699;43.704;10.430;2023-04-30T04:55:39;15.00;99.90
23063;DHT22;11699;43.704;10.430;2023-04-30T04:58:06;15.10;99.90
23063;DHT22;11699;43.704;10.430;2023-04-30T05:00:33;15.10;99.90
23063;DHT22;11699;43.704;10.430;2023-04-30T05:03:01;15.20;99.90
23063;DHT22;11699;43.704;10.430;2023-04-30T05:05:28;15.30;99.90
23063;DHT22;11699;43.704;10.430;2023-04-30T05:07:55;15.30;99.90
23063;DHT22;11699;43.704;10.430;2023-04-30T05:10:24;15.30;99.90
23063;DHT22;11699;43.704;10.430;2023-04-30T05:12:52;15.40;99.90
23063;DHT22;11699;43.704;10.430;2023-04-30T05:15:19;15.40;99.90
23063;DHT22;11699;43.704;10.430;2023-04-30T05:17:46;15.50;99.90
23063;DHT22;11699;43.704;10.430;2023-04-30T05:20:14;15.70;99.90
23063;DHT22;11699;43.704;10.430;2023-04-30T05:22:41;15.80;99.90
23063;DHT22;11699;43.704;10.430;2023-04-30T05:25:09;15.90;99.90
23063;DHT22;11699;43.704;10.430;2023-04-30T05:27:37;16.00;99.90
23063;DHT22;11699;43.704;10.430;2023-04-30T05:30:06;16.00;99.90
23063;DHT22;11699;43.704;10.430;2023-04-30T05:32:34;16.10;99.90
23063;DHT22;11699;43.704;10.430;2023-04-30T05:35:01;16.10;99.90
23063;DHT22;11699;43.704;10.430;2023-04-30T05:37:29;16.10;99.90
23063;DHT22;11699;43.704;10.430;2023-04-30T05:39:56;16.20;99.90
23063;DHT22;11699;43.704;10.430;2023-04-30T05:42:24;16.30;99.90
23063;DHT22;11699;43.704;10.430;2023-04-30T05:44:54;16.40;99.90
23063;DHT22;11699;43.704;10.430;2023-04-30T05:47:21;16.50;99.90
23063;DHT22;11699;43.704;10.430;2023-04-30T05:49:48;16.60;99.90
23063;DHT22;11699;43.704;10.430;2023-04-30T05:52:16;16.70;99.90
23063;DHT22;11699;43.704;10.430;2023-04-30T05:54:43;16.70;99.90
23063;DHT22;11699;43.704;10.430;2023-04-30T05:57:13;16.80;99.90
23063;DHT22;11699;43.704;10.430;2023-04-30T05:59:40;16.90;99.90
23063;DHT22;11699;43.704;10.430;2023-04-30T06:02:09;17.00;99.90
23063;DHT22;11699;43.704;10.430;2023-04-30T06:04:36;17.10;99.90
23063;DHT22;11699;43.704;10.430;2023-04-30T06:07:04;17.00;99.90
23063;DHT22;11699;43.704;10.430;2023-04-30T06:09:31;17.10;99.90
23063;DHT22;11699;43.704;10.430;2023-04-30T06:11:58;17.20;99.90
23063;DHT22;11699;43.704;10.430;2023-04-30T06:14:25;17.20;99.90
23063;DHT22;11699;43.704;10.430;2023-04-30T06:16:53;17.30;99.90
23063;DHT22;11699;43.704;10.430;2023-04-30T06:19:22;17.40;99.90
23063;DHT22;11699;43.704;10.430;2023-04-30T06:21:49;17.50;99.90
23063;DHT22;11699;43.704;10.430;2023-04-30T06:24:16;17.70;99.90
23063;DHT22;11699;43.704;10.430;2023-04-30T06:26:43;17.80;99.90
23063;DHT22;11699;43.704;10.430;2023-04-30T06:29:11;17.90;99.90
23063;DHT22;11699;43.704;10.430;2023-04-30T06:31:38;18.00;99.90
23063;DHT22;11699;43.704;10.430;2023-04-30T06:34:05;18.10;99.90
23063;DHT22;11699;43.704;10.430;2023-04-30T06:36:34;18.20;99.90
23063;DHT22;11699;43.704;10.430;2023-04-30T06:39:02;18.30;99.90
23063;DHT22;11699;43.704;10.430;2023-04-30T06:41:30;18.40;99.90
23063;DHT22;11699;43.704;10.430;2023-04-30T06:43:57;18.40;99.90
23063;DHT22;11699;43.704;10.430;2023-04-30T06:46:25;18.40;99.90
23063;DHT22;11699;43.704;10.430;2023-04-30T06:48:52;18.60;99.90
23063;DHT22;11699;43.704;10.430;2023-04-30T06:51:20;18.70;99.90
23063;DHT22;11699;43.704;10.430;2023-04-30T06:53:48;18.80;99.90
23063;DHT22;11699;43.704;10.430;2023-04-30T06:56:16;19.00;99.90
23063;DHT22;11699;43.704;10.430;2023-04-30T06:58:43;19.10;99.90
23063;DHT22;11699;43.704;10.430;2023-04-30T07:01:11;19.70;99.90
23063;DHT22;11699;43.704;10.430;2023-04-30T07:03:39;20.40;99.90
23063;DHT22;11699;43.704;10.430;2023-04-30T07:06:06;21.10;99.90
23063;DHT22;11699;43.704;10.430;2023-04-30T07:08:34;21.90;99.90
23063;DHT22;11699;43.704;10.430;2023-04-30T07:11:02;22.60;99.90
23063;DHT22;11699;43.704;10.430;2023-04-30T07:13:30;23.20;99.90
23063;DHT22;11699;43.704;10.430;2023-04-30T07:15:57;23.90;99.90
23063;DHT22;11699;43.704;10.430;2023-04-30T07:18:24;24.40;99.90
23063;DHT22;11699;43.704;10.430;2023-04-30T07:20:52;24.80;99.90
23063;DHT22;11699;43.704;10.430;2023-04-30T07:23:20;25.30;99.90
23063;DHT22;11699;43.704;10.430;2023-04-30T07:25:47;25.50;99.90
23063;DHT22;11699;43.704;10.430;2023-04-30T07:28:16;26.10;99.90
23063;DHT22;11699;43.704;10.430;2023-04-30T07:30:43;26.30;99.90
23063;DHT22;11699;43.704;10.430;2023-04-30T07:33:11;26.70;99.90
23063;DHT22;11699;43.704;10.430;2023-04-30T07:35:39;27.00;99.90
23063;DHT22;11699;43.704;10.430;2023-04-30T07:38:06;27.00;99.90
23063;DHT22;11699;43.704;10.430;2023-04-30T07:40:34;26.80;99.90
23063;DHT22;11699;43.704;10.430;2023-04-30T07:43:01;26.40;99.90
23063;DHT22;11699;43.704;10.430;2023-04-30T07:45:31;25.70;99.90
23063;DHT22;11699;43.704;10.430;2023-04-30T07:47:58;25.40;99.90
23063;DHT22;11699;43.704;10.430;2023-04-30T07:50:26;25.70;99.90
23063;DHT22;11699;43.704;10.430;2023-04-30T07:52:58;26.10;99.90
23063;DHT22;11699;43.704;10.430;2023-04-30T07:55:26;26.20;99.90
23063;DHT22;11699;43.704;10.430;2023-04-30T07:57:53;26.10;99.90
23063;DHT22;11699;43.704;10.430;2023-04-30T08:00:21;25.90;99.90
23063;DHT22;11699;43.704;10.430;2023-04-30T08:02:50;25.90;99.90
23063;DHT22;11699;43.704;10.430;2023-04-30T08:05:18;26.00;99.90
23063;DHT22;11699;43.704;10.430;2023-04-30T08:07:46;26.20;99.90
23063;DHT22;11699;43.704;10.430;2023-04-30T08:10:13;26.20;99.90
23063;DHT22;11699;43.704;10.430;2023-04-30T08:12:41;26.50;99.90
23063;DHT22;11699;43.704;10.430;2023-04-30T08:15:08;26.70;99.90
23063;DHT22;11699;43.704;10.430;2023-04-30T08:17:36;27.20;99.90
23063;DHT22;11699;43.704;10.430;2023-04-30T08:20:06;27.60;99.90
23063;DHT22;11699;43.704;10.430;2023-04-30T08:22:34;28.20;99.90
23063;DHT22;11699;43.704;10.430;2023-04-30T08:25:02;28.60;99.90
23063;DHT22;11699;43.704;10.430;2023-04-30T08:27:30;29.00;99.90
23063;DHT22;11699;43.704;10.430;2023-04-30T08:29:58;29.10;99.90
23063;DHT22;11699;43.704;10.430;2023-04-30T08:32:26;28.90;99.90
23063;DHT22;11699;43.704;10.430;2023-04-30T08:34:54;28.70;99.90
23063;DHT22;11699;43.704;10.430;2023-04-30T08:37:23;27.90;99.90
23063;DHT22;11699;43.704;10.430;2023-04-30T08:39:50;27.40;99.90
23063;DHT22;11699;43.704;10.430;2023-04-30T08:42:18;27.20;99.90
23063;DHT22;11699;43.704;10.430;2023-04-30T08:44:47;26.90;99.90
23063;DHT22;11699;43.704;10.430;2023-04-30T08:47:15;27.20;99.90
23063;DHT22;11699;43.704;10.430;2023-04-30T08:49:44;27.40;99.90
23063;DHT22;11699;43.704;10.430;2023-04-30T08:52:12;27.00;99.90
23063;DHT22;11699;43.704;10.430;2023-04-30T08:54:41;27.20;99.90
23063;DHT22;11699;43.704;10.430;2023-04-30T08:57:10;27.20;99.90
23063;DHT22;11699;43.704;10.430;2023-04-30T08:59:38;27.70;99.90
23063;DHT22;11699;43.704;10.430;2023-04-30T09:02:05;28.40;99.90
23063;DHT22;11699;43.704;10.430;2023-04-30T09:04:35;28.30;99.90
23063;DHT22;11699;43.704;10.430;2023-04-30T09:07:02;28.70;99.90
23063;DHT22;11699;43.704;10.430;2023-04-30T09:09:36;28.60;99.90
23063;DHT22;11699;43.704;10.430;2023-04-30T09:12:12;28.20;99.90
23063;DHT22;11699;43.704;10.430;2023-04-30T09:14:40;27.80;99.90
23063;DHT22;11699;43.704;10.430;2023-04-30T09:17:08;27.50;99.90
23063;DHT22;11699;43.704;10.430;2023-04-30T09:19:35;27.50;99.90
23063;DHT22;11699;43.704;10.430;2023-04-30T09:22:18;27.80;99.90
23063;DHT22;11699;43.704;10.430;2023-04-30T09:24:46;27.60;99.90
23063;DHT22;11699;43.704;10.430;2023-04-30T09:27:21;27.80;99.90
23063;DHT22;11699;43.704;10.430;2023-04-30T09:29:49;27.40;99.90
23063;DHT22;11699;43.704;10.430;2023-04-30T09:32:16;27.10;99.90
23063;DHT22;11699;43.704;10.430;2023-04-30T09:34:44;27.40;99.90
23063;DHT22;11699;43.704;10.430;2023-04-30T09:37:11;27.70;99.90
23063;DHT22;11699;43.704;10.430;2023-04-30T09:39:46;28.10;99.90
23063;DHT22;11699;43.704;10.430;2023-04-30T09:42:14;28.00;99.90
23063;DHT22;11699;43.704;10.430;2023-04-30T09:44:44;28.30;99.90
23063;DHT22;11699;43.704;10.430;2023-04-30T09:47:12;28.20;99.90
23063;DHT22;11699;43.704;10.430;2023-04-30T09:49:41;28.90;99.90
23063;DHT22;11699;43.704;10.430;2023-04-30T09:52:09;29.40;99.90
23063;DHT22;11699;43.704;10.430;2023-04-30T09:54:37;29.60;99.90
23063;DHT22;11699;43.704;10.430;2023-04-30T09:57:10;29.40;99.20
23063;DHT22;11699;43.704;10.430;2023-04-30T09:59:38;29.20;98.50
23063;DHT22;11699;43.704;10.430;2023-04-30T10:02:13;29.00;99.50
23063;DHT22;11699;43.704;10.430;2023-04-30T10:04:42;29.70;99.90
23063;DHT22;11699;43.704;10.430;2023-04-30T10:07:13;29.60;99.50
23063;DHT22;11699;43.704;10.430;2023-04-30T10:09:47;29.70;98.40
23063;DHT22;11699;43.704;10.430;2023-04-30T10:12:16;29.20;98.70
23063;DHT22;11699;43.704;10.430;2023-04-30T10:14:51;28.10;99.20
23063;DHT22;11699;43.704;10.430;2023-04-30T10:17:25;27.80;99.90
23063;DHT22;11699;43.704;10.430;2023-04-30T10:19:56;28.00;99.80
23063;DHT22;11699;43.704;10.430;2023-04-30T10:22:25;28.10;99.90
23063;DHT22;11699;43.704;10.430;2023-04-30T10:24:53;27.80;99.60
23063;DHT22;11699;43.704;10.430;2023-04-30T10:27:20;27.60;99.90
23063;DHT22;11699;43.704;10.430;2023-04-30T10:29:48;27.60;99.90
23063;DHT22;11699;43.704;10.430;2023-04-30T10:32:16;28.00;99.80
23063;DHT22;11699;43.704;10.430;2023-04-30T10:34:51;27.90;98.60
23063;DHT22;11699;43.704;10.430;2023-04-30T10:37:30;27.30;98.80
23063;DHT22;11699;43.704;10.430;2023-04-30T10:40:00;27.70;99.90
23063;DHT22;11699;43.704;10.430;2023-04-30T10:42:30;28.30;99.90
23063;DHT22;11699;43.704;10.430;2023-04-30T10:44:57;27.90;99.40
23063;DHT22;11699;43.704;10.430;2023-04-30T10:47:28;27.90;99.60
23063;DHT22;11699;43.704;10.430;2023-04-30T10:50:03;28.10;99.00
23063;DHT22;11699;43.704;10.430;2023-04-30T10:52:30;28.30;98.70
23063;DHT22;11699;43.704;10.430;2023-04-30T10:54:58;28.00;98.80
23063;DHT22;11699;43.704;10.430;2023-04-30T10:57:28;27.90;98.50
23063;DHT22;11699;43.704;10.430;2023-04-30T11:00:18;27.70;99.20
23063;DHT22;11699;43.704;10.430;2023-04-30T11:02:46;27.80;99.10
23063;DHT22;11699;43.704;10.430;2023-04-30T11:05:16;28.10;99.70
23063;DHT22;11699;43.704;10.430;2023-04-30T11:07:47;27.80;99.90
23063;DHT22;11699;43.704;10.430;2023-04-30T11:10:16;27.40;99.70
23063;DHT22;11699;43.704;10.430;2023-04-30T11:12:47;27.00;99.90
23063;DHT22;11699;43.704;10.430;2023-04-30T11:15:17;26.40;99.90
23063;DHT22;11699;43.704;10.430;2023-04-30T11:17:47;26.10;99.90
23063;DHT22;11699;43.704;10.430;2023-04-30T11:20:22;25.80;99.90
23063;DHT22;11699;43.704;10.430;2023-04-30T11:23:08;25.70;99.90
23063;DHT22;11699;43.704;10.430;2023-04-30T11:25:40;25.60;99.90
23063;DHT22;11699;43.704;10.430;2023-04-30T11:28:13;25.30;99.90
23063;DHT22;11699;43.704;10.430;2023-04-30T11:30:50;25.10;99.90
23063;DHT22;11699;43.704;10.430;2023-04-30T11:33:18;25.00;99.90
23063;DHT22;11699;43.704;10.430;2023-04-30T11:35:47;25.10;99.90
23063;DHT22;11699;43.704;10.430;2023-04-30T11:38:20;25.40;99.90
23063;DHT22;11699;43.704;10.430;2023-04-30T11:40:48;25.60;99.90
23063;DHT22;11699;43.704;10.430;2023-04-30T11:43:23;25.60;99.90
23063;DHT22;11699;43.704;10.430;2023-04-30T11:46:03;25.40;99.90
23063;DHT22;11699;43.704;10.430;2023-04-30T11:48:31;25.50;99.90
23063;DHT22;11699;43.704;10.430;2023-04-30T11:51:02;25.60;99.90
23063;DHT22;11699;43.704;10.430;2023-04-30T11:53:29;25.50;99.90
23063;DHT22;11699;43.704;10.430;2023-04-30T11:56:02;25.50;99.90
23063;DHT22;11699;43.704;10.430;2023-04-30T11:58:35;25.40;99.90
23063;DHT22;11699;43.704;10.430;2023-04-30T12:01:03;25.20;99.90
23063;DHT22;11699;43.704;10.430;2023-04-30T12:03:31;25.00;99.90
23063;DHT22;11699;43.704;10.430;2023-04-30T12:05:59;24.80;99.90
23063;DHT22;11699;43.704;10.430;2023-04-30T12:08:28;24.60;99.90
23063;DHT22;11699;43.704;10.430;2023-04-30T12:10:56;24.50;99.90
23063;DHT22;11699;43.704;10.430;2023-04-30T12:13:23;24.30;99.90
23063;DHT22;11699;43.704;10.430;2023-04-30T12:15:57;24.20;99.90
23063;DHT22;11699;43.704;10.430;2023-04-30T12:18:25;24.20;99.90
23063;DHT22;11699;43.704;10.430;2023-04-30T12:20:53;24.10;99.90
23063;DHT22;11699;43.704;10.430;2023-04-30T12:23:20;24.20;99.90
23063;DHT22;11699;43.704;10.430;2023-04-30T12:25:49;24.30;99.90
23063;DHT22;11699;43.704;10.430;2023-04-30T12:28:18;24.30;99.90
23063;DHT22;11699;43.704;10.430;2023-04-30T12:30:46;24.50;99.90
23063;DHT22;11699;43.704;10.430;2023-04-30T12:33:16;24.60;99.90
23063;DHT22;11699;43.704;10.430;2023-04-30T12:35:44;24.70;99.90
23063;DHT22;11699;43.704;10.430;2023-04-30T12:38:15;24.90;99.90
23063;DHT22;11699;43.704;10.430;2023-04-30T12:40:46;24.90;99.90
23063;DHT22;11699;43.704;10.430;2023-04-30T12:43:16;25.00;99.90
23063;DHT22;11699;43.704;10.430;2023-04-30T12:45:46;24.70;99.90
23063;DHT22;11699;43.704;10.430;2023-04-30T12:48:14;24.70;99.90
23063;DHT22;11699;43.704;10.430;2023-04-30T12:50:45;24.60;99.90
23063;DHT22;11699;43.704;10.430;2023-04-30T12:53:13;24.40;99.90
23063;DHT22;11699;43.704;10.430;2023-04-30T12:55:40;24.10;99.90
23063;DHT22;11699;43.704;10.430;2023-04-30T12:58:09;23.70;99.90
23063;DHT22;11699;43.704;10.430;2023-04-30T13:00:48;23.50;99.90
23063;DHT22;11699;43.704;10.430;2023-04-30T13:03:18;23.20;99.90
23063;DHT22;11699;43.704;10.430;2023-04-30T13:05:46;23.00;99.90
23063;DHT22;11699;43.704;10.430;2023-04-30T13:08:15;22.90;99.90
23063;DHT22;11699;43.704;10.430;2023-04-30T13:10:43;22.80;99.90
23063;DHT22;11699;43.704;10.430;2023-04-30T13:13:11;22.60;99.90
23063;DHT22;11699;43.704;10.430;2023-04-30T13:15:39;22.50;99.90
23063;DHT22;11699;43.704;10.430;2023-04-30T13:18:08;22.50;99.90
23063;DHT22;11699;43.704;10.430;2023-04-30T13:20:37;22.50;99.90
23063;DHT22;11699;43.704;10.430;2023-04-30T13:23:05;22.50;99.90
23063;DHT22;11699;43.704;10.430;2023-04-30T13:25:34;22.50;99.90
23063;DHT22;11699;43.704;10.430;2023-04-30T13:28:01;22.60;99.90
23063;DHT22;11699;43.704;10.430;2023-04-30T13:30:29;22.70;99.90
23063;DHT22;11699;43.704;10.430;2023-04-30T13:32:56;22.90;99.90
23063;DHT22;11699;43.704;10.430;2023-04-30T13:35:25;22.70;99.90
23063;DHT22;11699;43.704;10.430;2023-04-30T13:37:53;22.80;99.90
23063;DHT22;11699;43.704;10.430;2023-04-30T13:40:21;22.80;99.90
23063;DHT22;11699;43.704;10.430;2023-04-30T13:42:48;23.00;99.90
23063;DHT22;11699;43.704;10.430;2023-04-30T13:45:15;23.10;99.90
23063;DHT22;11699;43.704;10.430;2023-04-30T13:47:43;23.20;99.90
23063;DHT22;11699;43.704;10.430;2023-04-30T13:50:10;23.40;99.90
23063;DHT22;11699;43.704;10.430;2023-04-30T13:52:39;23.40;99.90
23063;DHT22;11699;43.704;10.430;2023-04-30T13:55:08;23.40;99.90
23063;DHT22;11699;43.704;10.430;2023-04-30T13:57:35;23.40;99.90
23063;DHT22;11699;43.704;10.430;2023-04-30T14:00:04;23.40;99.90
23063;DHT22;11699;43.704;10.430;2023-04-30T14:02:32;23.40;99.90
23063;DHT22;11699;43.704;10.430;2023-04-30T14:04:59;23.50;99.90
23063;DHT22;11699;43.704;10.430;2023-04-30T14:07:28;23.50;99.90
23063;DHT22;11699;43.704;10.430;2023-04-30T14:09:57;23.80;99.90
23063;DHT22;11699;43.704;10.430;2023-04-30T14:12:25;24.10;99.90
23063;DHT22;11699;43.704;10.430;2023-04-30T14:14:55;23.80;99.90
23063;DHT22;11699;43.704;10.430;2023-04-30T14:17:23;23.70;99.90
23063;DHT22;11699;43.704;10.430;2023-04-30T14:19:51;23.80;99.90
23063;DHT22;11699;43.704;10.430;2023-04-30T14:22:19;23.80;99.90
23063;DHT22;11699;43.704;10.430;2023-04-30T14:24:47;23.80;99.90
23063;DHT22;11699;43.704;10.430;2023-04-30T14:27:16;23.60;99.90
23063;DHT22;11699;43.704;10.430;2023-04-30T14:29:43;23.20;99.90
23063;DHT22;11699;43.704;10.430;2023-04-30T14:32:12;23.00;99.90
23063;DHT22;11699;43.704;10.430;2023-04-30T14:34:40;22.80;99.90
23063;DHT22;11699;43.704;10.430;2023-04-30T14:37:07;22.80;99.90
23063;DHT22;11699;43.704;10.430;2023-04-30T14:39:35;22.60;99.90
23063;DHT22;11699;43.704;10.430;2023-04-30T14:42:02;22.50;99.90
23063;DHT22;11699;43.704;10.430;2023-04-30T14:44:31;22.20;99.90
23063;DHT22;11699;43.704;10.430;2023-04-30T14:46:59;22.30;99.90
23063;DHT22;11699;43.704;10.430;2023-04-30T14:49:26;22.30;99.90
23063;DHT22;11699;43.704;10.430;2023-04-30T14:51:54;22.30;99.90
23063;DHT22;11699;43.704;10.430;2023-04-30T14:54:21;22.30;99.90
23063;DHT22;11699;43.704;10.430;2023-04-30T14:56:49;22.30;99.90
23063;DHT22;11699;43.704;10.430;2023-04-30T14:59:16;22.30;99.90
23063;DHT22;11699;43.704;10.430;2023-04-30T15:01:45;22.30;99.90
23063;DHT22;11699;43.704;10.430;2023-04-30T15:04:12;22.20;99.90
23063;DHT22;11699;43.704;10.430;2023-04-30T15:06:40;21.90;99.90
23063;DHT22;11699;43.704;10.430;2023-04-30T15:09:07;21.80;99.90
23063;DHT22;11699;43.704;10.430;2023-04-30T15:11:36;21.60;99.90
23063;DHT22;11699;43.704;10.430;2023-04-30T15:14:04;21.40;99.90
23063;DHT22;11699;43.704;10.430;2023-04-30T15:16:31;21.30;99.90
23063;DHT22;11699;43.704;10.430;2023-04-30T15:19:00;21.30;99.90
23063;DHT22;11699;43.704;10.430;2023-04-30T15:21:27;21.30;99.90
23063;DHT22;11699;43.704;10.430;2023-04-30T15:23:55;21.20;99.90
23063;DHT22;11699;43.704;10.430;2023-04-30T15:26:22;21.30;99.90